createdAt,value
2018-07-06T00:01:45.643Z,73.83
2018-07-06T00:04:30.659Z,73.47
2018-07-06T00:07:15.715Z,72.99
2018-07-06T00:10:00.882Z,72.47
2018-07-06T00:12:46.145Z,72.82
2018-07-06T00:15:31.226Z,72.70
2018-07-06T00:18:16.298Z,72.09
2018-07-06T00:21:01.565Z,72.51
2018-07-06T00:23:46.682Z,72.01
2018-07-06T00:26:31.761Z,71.80
2018-07-06T00:29:17.071Z,71.73
2018-07-06T00:32:02.884Z,72.41
2018-07-06T00:34:48.062Z,72.80
2018-07-06T00:37:33.106Z,72.04
2018-07-06T00:40:18.364Z,71.94
2018-07-06T00:42:57.790Z,72.22
2018-07-06T00:45:42.954Z,72.07
2018-07-06T00:48:28.162Z,73.14
2018-07-06T00:51:13.112Z,72.48
2018-07-06T00:53:58.226Z,73.09
2018-07-06T00:56:43.377Z,72.15
2018-07-06T00:59:28.434Z,72.07
2018-07-06T01:02:13.717Z,72.94
2018-07-06T01:04:58.929Z,73.12
2018-07-06T01:07:43.928Z,73.04
2018-07-06T01:10:33.474Z,73.36
2018-07-06T01:13:18.589Z,73.69
2018-07-06T01:16:03.738Z,73.06
2018-07-06T01:18:48.641Z,73.21
2018-07-06T01:21:33.921Z,72.77
2018-07-06T01:24:19.210Z,72.63
2018-07-06T01:27:04.376Z,73.19
2018-07-06T01:29:49.452Z,73.16
2018-07-06T01:32:34.610Z,72.93
2018-07-06T01:35:20.074Z,73.11
2018-07-06T01:38:05.410Z,73.44
2018-07-06T01:40:57.371Z,73.73
2018-07-06T01:43:42.578Z,72.98
2018-07-06T01:46:27.638Z,73.58
2018-07-06T01:49:12.786Z,72.84
2018-07-06T01:51:57.834Z,72.98
2018-07-06T01:54:37.162Z,72.56
2018-07-06T01:57:22.194Z,72.21
2018-07-06T02:00:07.461Z,72.25
2018-07-06T02:02:52.562Z,72.47
2018-07-06T02:05:38.015Z,72.22
2018-07-06T02:08:23.202Z,72.89
2018-07-06T02:11:08.339Z,72.07
2018-07-06T02:13:53.456Z,72.87
2018-07-06T02:16:38.658Z,73.98
2018-07-06T02:19:23.798Z,74.38
2018-07-06T02:22:08.944Z,74.44
2018-07-06T02:24:54.098Z,74.26
2018-07-06T02:27:39.156Z,74.20
2018-07-06T02:30:24.408Z,74.81
2018-07-06T02:33:09.636Z,74.07
2018-07-06T02:35:54.663Z,74.74
2018-07-06T02:38:39.626Z,74.19
2018-07-06T02:41:24.703Z,74.09
2018-07-06T02:44:10.122Z,74.70
2018-07-06T02:46:55.161Z,74.77
2018-07-06T02:49:40.223Z,74.28
2018-07-06T02:52:25.371Z,74.77
2018-07-06T02:55:10.545Z,74.83
2018-07-06T02:57:55.510Z,75.17
2018-07-06T03:00:40.790Z,75.00
2018-07-06T03:03:25.930Z,74.63
2018-07-06T03:06:11.135Z,74.31
2018-07-06T03:08:56.329Z,74.18
2018-07-06T03:11:41.798Z,75.00
2018-07-06T03:14:27.026Z,75.00
2018-07-06T03:17:12.382Z,74.43
2018-07-06T03:19:57.447Z,74.92
2018-07-06T03:22:42.610Z,74.78
2018-07-06T03:25:27.556Z,74.31
2018-07-06T03:28:12.730Z,74.50
2018-07-06T03:30:57.814Z,74.14
2018-07-06T03:33:43.007Z,74.27
2018-07-06T03:36:28.218Z,74.70
2018-07-06T03:39:13.341Z,74.82
2018-07-06T03:41:58.421Z,74.34
2018-07-06T03:44:43.441Z,74.19
2018-07-06T03:47:22.873Z,74.78
2018-07-06T03:50:08.345Z,74.47
2018-07-06T03:52:53.167Z,74.92
2018-07-06T03:55:38.314Z,74.43
2018-07-06T03:58:23.657Z,75.34
2018-07-06T04:01:02.953Z,74.80
2018-07-06T04:03:48.037Z,74.73
2018-07-06T04:06:33.107Z,75.08
2018-07-06T04:09:18.122Z,75.59
2018-07-06T04:12:03.445Z,74.66
2018-07-06T04:14:48.710Z,74.67
2018-07-06T04:17:33.942Z,75.02
2018-07-06T04:20:19.241Z,74.99
2018-07-06T04:23:04.506Z,75.42
2018-07-06T04:25:49.598Z,75.00
2018-07-06T04:28:34.834Z,75.67
2018-07-06T04:31:19.959Z,75.57
2018-07-06T04:34:05.201Z,75.31
2018-07-06T04:36:50.226Z,74.77
2018-07-06T04:39:35.475Z,75.37
2018-07-06T04:42:20.547Z,74.80
2018-07-06T04:45:05.607Z,74.91
2018-07-06T04:47:50.951Z,75.53
2018-07-06T04:50:36.190Z,75.50
2018-07-06T04:53:21.506Z,74.88
2018-07-06T04:56:06.510Z,74.51
2018-07-06T04:58:51.686Z,74.97
2018-07-06T05:01:36.982Z,75.53
2018-07-06T05:04:22.138Z,75.08
2018-07-06T05:07:07.366Z,75.47
2018-07-06T05:09:52.895Z,75.04
2018-07-06T05:12:38.034Z,74.26
2018-07-06T05:15:23.338Z,74.36
2018-07-06T05:18:08.502Z,74.70
2018-07-06T05:20:53.814Z,75.04
2018-07-06T05:23:40.720Z,74.62
2018-07-06T05:26:25.845Z,74.96
2018-07-06T05:29:10.840Z,75.59
2018-07-06T05:31:56.099Z,74.55
2018-07-06T05:34:41.326Z,75.64
2018-07-06T05:37:26.499Z,75.08
2018-07-06T05:40:11.710Z,74.90
2018-07-06T05:42:56.874Z,74.91
2018-07-06T05:45:41.963Z,75.29
2018-07-06T05:48:27.218Z,75.16
2018-07-06T05:51:12.390Z,75.60
2018-07-06T05:53:57.400Z,75.23
2018-07-06T05:56:42.278Z,74.94
2018-07-06T05:59:27.293Z,74.98
2018-07-06T06:02:12.612Z,75.34
2018-07-06T06:04:51.958Z,75.09
2018-07-06T06:07:26.974Z,75.35
2018-07-06T06:09:54.566Z,74.84
2018-07-06T06:12:22.227Z,75.09
2018-07-06T06:14:50.750Z,75.63
2018-07-06T06:17:18.342Z,75.20
2018-07-06T06:19:45.906Z,75.06
2018-07-06T06:22:13.512Z,75.96
2018-07-06T06:24:41.108Z,74.63
2018-07-06T06:27:08.824Z,75.51
2018-07-06T06:29:37.056Z,75.36
2018-07-06T06:32:05.988Z,74.48
2018-07-06T06:34:33.658Z,75.19
2018-07-06T06:37:01.726Z,74.97
2018-07-06T06:39:29.976Z,74.87
2018-07-06T06:41:57.682Z,74.99
2018-07-06T06:44:25.427Z,74.29
2018-07-06T06:46:53.067Z,74.92
2018-07-06T06:49:20.790Z,74.53
2018-07-06T06:51:48.551Z,74.88
2018-07-06T06:54:16.285Z,74.16
2018-07-06T06:56:43.986Z,73.61
2018-07-06T06:59:12.030Z,73.83
2018-07-06T07:01:39.679Z,74.42
2018-07-06T07:04:07.681Z,73.80
2018-07-06T07:06:35.763Z,73.76
2018-07-06T07:09:04.218Z,73.44
2018-07-06T07:11:32.071Z,74.12
2018-07-06T07:13:59.784Z,73.22
2018-07-06T07:16:27.537Z,73.63
2018-07-06T07:18:55.299Z,73.81
2018-07-06T07:21:22.955Z,74.16
2018-07-06T07:23:50.654Z,74.15
2018-07-06T07:26:18.309Z,73.55
2018-07-06T07:28:45.978Z,74.21
2018-07-06T07:31:13.626Z,74.51
2018-07-06T07:33:41.622Z,74.50
2018-07-06T07:36:09.346Z,74.70
2018-07-06T07:38:36.984Z,74.98
2018-07-06T07:41:04.626Z,74.76
2018-07-06T07:43:32.294Z,74.21
2018-07-06T07:45:59.978Z,74.50
2018-07-06T07:48:27.658Z,74.55
2018-07-06T07:51:13.020Z,74.59
2018-07-06T07:53:58.066Z,74.04
2018-07-06T07:56:25.739Z,73.57
2018-07-06T07:58:53.390Z,73.72
2018-07-06T08:01:21.151Z,72.96
2018-07-06T08:03:48.893Z,73.56
2018-07-06T08:06:16.657Z,73.33
2018-07-06T08:08:44.394Z,73.00
2018-07-06T08:11:12.077Z,72.59
2018-07-06T08:13:39.733Z,72.18
2018-07-06T08:16:07.509Z,72.32
2018-07-06T08:18:35.170Z,72.90
2018-07-06T08:21:02.894Z,71.88
2018-07-06T08:23:30.634Z,70.73
2018-07-06T08:25:58.255Z,69.53
2018-07-06T08:28:25.850Z,69.98
2018-07-06T08:30:53.558Z,70.68
2018-07-06T08:33:21.576Z,69.50
2018-07-06T08:36:06.774Z,68.57
2018-07-06T08:38:34.378Z,69.90
2018-07-06T08:41:02.011Z,69.36
2018-07-06T08:43:29.646Z,67.95
2018-07-06T08:45:57.347Z,69.46
2018-07-06T08:48:25.019Z,69.04
2018-07-06T08:50:52.658Z,69.69
2018-07-06T08:53:20.291Z,68.95
2018-07-06T08:55:48.042Z,68.86
2018-07-06T08:58:15.731Z,68.04
2018-07-06T09:00:43.427Z,68.39
2018-07-06T09:03:11.109Z,68.71
2018-07-06T09:05:38.742Z,69.05
2018-07-06T09:08:07.169Z,68.79
2018-07-06T09:10:34.810Z,68.29
2018-07-06T09:13:02.627Z,68.23
2018-07-06T09:15:30.234Z,69.48
2018-07-06T09:17:58.006Z,69.59
2018-07-06T09:20:25.633Z,70.10
2018-07-06T09:22:53.528Z,68.92
2018-07-06T09:25:20.950Z,68.08
2018-07-06T09:27:48.654Z,69.17
2018-07-06T09:30:16.303Z,65.03
2018-07-06T09:32:44.074Z,68.48
2018-07-06T09:35:11.746Z,64.51
2018-07-06T09:37:39.386Z,66.71
2018-07-06T09:40:08.035Z,65.80
2018-07-06T09:42:35.792Z,66.89
2018-07-06T09:45:03.550Z,66.34
2018-07-06T09:47:31.370Z,65.18
2018-07-06T09:49:59.148Z,64.33
2018-07-06T09:52:26.935Z,60.93
2018-07-06T09:54:54.690Z,61.70
2018-07-06T09:57:22.458Z,61.14
2018-07-06T09:59:50.223Z,59.88
2018-07-06T10:02:17.883Z,61.25
2018-07-06T10:04:45.512Z,60.87
2018-07-06T10:07:13.207Z,56.90
2018-07-06T10:09:40.997Z,56.97
2018-07-06T10:12:08.706Z,58.17
2018-07-06T10:14:36.405Z,60.49
2018-07-06T10:17:04.140Z,61.11
2018-07-06T10:19:31.917Z,61.43
2018-07-06T10:21:59.683Z,61.77
2018-07-06T10:24:27.414Z,61.16
2018-07-06T10:26:55.107Z,61.23
2018-07-06T10:29:36.495Z,59.27
2018-07-06T10:32:22.195Z,61.72
2018-07-06T10:34:50.931Z,58.40
2018-07-06T10:37:19.222Z,57.62
2018-07-06T10:39:47.667Z,57.71
2018-07-06T10:42:15.358Z,58.19
2018-07-06T10:44:43.071Z,58.37
2018-07-06T10:47:11.121Z,59.36
2018-07-06T10:49:38.826Z,57.00
2018-07-06T10:52:07.346Z,56.01
2018-07-06T10:54:35.738Z,55.04
2018-07-06T10:57:03.483Z,52.89
2018-07-06T10:59:31.157Z,54.79
2018-07-06T11:01:58.855Z,55.36
2018-07-06T11:04:26.648Z,55.14
2018-07-06T11:06:54.877Z,54.91
2018-07-06T11:09:22.678Z,55.45
2018-07-06T11:11:50.659Z,54.87
2018-07-06T11:14:18.685Z,56.12
2018-07-06T11:16:46.383Z,54.24
2018-07-06T11:19:14.098Z,56.99
2018-07-06T11:21:41.756Z,54.24
2018-07-06T11:24:09.587Z,52.66
2018-07-06T11:26:37.296Z,52.45
2018-07-06T11:29:05.174Z,51.50
2018-07-06T11:31:32.802Z,52.73
2018-07-06T11:34:01.104Z,54.16
2018-07-06T11:36:28.770Z,51.42
2018-07-06T11:38:56.434Z,52.96
2018-07-06T11:41:24.106Z,51.23
2018-07-06T11:43:51.874Z,52.26
2018-07-06T11:46:19.723Z,51.70
2018-07-06T11:48:47.470Z,51.12
2018-07-06T11:51:15.179Z,49.15
2018-07-06T11:53:43.934Z,49.08
2018-07-06T11:56:11.670Z,50.50
2018-07-06T11:58:40.077Z,50.88
2018-07-06T12:01:07.915Z,50.92
2018-07-06T12:03:35.634Z,52.13
2018-07-06T12:06:03.434Z,49.88
2018-07-06T12:08:31.210Z,47.12
2018-07-06T12:10:58.882Z,46.63
2018-07-06T12:13:26.619Z,48.17
2018-07-06T12:15:54.268Z,48.90
2018-07-06T12:18:22.051Z,45.68
2018-07-06T12:20:49.729Z,44.66
2018-07-06T12:23:17.397Z,43.16
2018-07-06T12:25:45.252Z,43.30
2018-07-06T12:28:12.981Z,46.26
2018-07-06T12:30:40.823Z,46.38
2018-07-06T12:33:08.510Z,46.65
2018-07-06T12:35:36.042Z,44.69
2018-07-06T12:38:03.794Z,44.15
2018-07-06T12:40:31.491Z,44.59
2018-07-06T12:42:59.123Z,42.16
2018-07-06T12:45:27.426Z,43.25
2018-07-06T12:47:55.113Z,45.60
2018-07-06T12:50:22.861Z,48.20
2018-07-06T12:52:50.510Z,47.53
2018-07-06T12:55:18.210Z,46.68
2018-07-06T12:57:46.046Z,43.70
2018-07-06T13:00:13.719Z,44.02
2018-07-06T13:02:41.735Z,43.82
2018-07-06T13:05:09.428Z,43.77
2018-07-06T13:07:37.104Z,43.10
2018-07-06T13:10:05.267Z,40.24
2018-07-06T13:12:32.966Z,39.57
2018-07-06T13:15:00.610Z,41.24
2018-07-06T13:17:28.310Z,42.80
2018-07-06T13:19:56.066Z,40.04
2018-07-06T13:22:23.717Z,42.16
2018-07-06T13:24:51.820Z,41.41
2018-07-06T13:27:19.474Z,42.42
2018-07-06T13:29:47.346Z,43.83
2018-07-06T13:32:15.117Z,44.20
2018-07-06T13:34:42.738Z,43.52
2018-07-06T13:37:10.491Z,49.64
2018-07-06T13:39:38.437Z,50.59
2018-07-06T13:42:06.432Z,50.92
2018-07-06T13:44:34.187Z,54.13
2018-07-06T13:47:01.946Z,55.23
2018-07-06T13:49:29.583Z,53.79
2018-07-06T13:51:57.361Z,54.85
2018-07-06T13:54:31.808Z,55.15
2018-07-06T13:56:59.415Z,54.84
2018-07-06T13:59:27.313Z,57.33
2018-07-06T14:01:54.983Z,60.23
2018-07-06T14:04:22.634Z,60.24
2018-07-06T14:06:50.426Z,61.35
2018-07-06T14:09:18.058Z,61.14
2018-07-06T14:11:45.865Z,61.21
2018-07-06T14:14:13.506Z,59.44
2018-07-06T14:16:41.790Z,57.31
2018-07-06T14:19:09.430Z,59.49
2018-07-06T14:21:37.118Z,58.32
2018-07-06T14:24:04.778Z,56.27
2018-07-06T14:26:32.407Z,58.43
2018-07-06T14:29:00.101Z,57.41
2018-07-06T14:31:27.766Z,60.44
2018-07-06T14:33:55.468Z,61.75
2018-07-06T14:36:23.281Z,60.97
2018-07-06T14:38:50.903Z,60.67
2018-07-06T14:41:18.660Z,60.37
2018-07-06T14:43:46.514Z,60.30
2018-07-06T14:46:14.282Z,60.34
2018-07-06T14:48:42.035Z,58.97
2018-07-06T14:51:09.702Z,59.16
2018-07-06T14:53:37.419Z,58.67
2018-07-06T14:56:05.063Z,57.16
2018-07-06T14:58:32.678Z,55.35
2018-07-06T15:01:00.326Z,55.19
2018-07-06T15:03:27.986Z,55.84
2018-07-06T15:05:55.614Z,54.42
2018-07-06T15:08:23.271Z,56.29
2018-07-06T15:10:50.919Z,54.92
2018-07-06T15:13:18.658Z,55.22
2018-07-06T15:15:46.311Z,55.93
2018-07-06T15:18:13.983Z,55.75
2018-07-06T15:20:41.650Z,57.17
2018-07-06T15:23:09.334Z,57.96
2018-07-06T15:25:37.038Z,58.56
2018-07-06T15:28:05.058Z,59.49
2018-07-06T15:30:32.686Z,57.14
2018-07-06T15:33:00.347Z,58.43
2018-07-06T15:35:28.031Z,57.34
2018-07-06T15:37:55.642Z,58.02
2018-07-06T15:40:23.314Z,57.82
2018-07-06T15:42:50.921Z,57.89
2018-07-06T15:45:18.639Z,57.23
2018-07-06T15:47:46.318Z,56.57
2018-07-06T15:50:13.983Z,55.97
2018-07-06T15:52:41.615Z,55.61
2018-07-06T15:55:09.250Z,55.44
2018-07-06T15:57:36.917Z,56.56
2018-07-06T16:00:04.658Z,56.01
2018-07-06T16:02:32.253Z,56.13
2018-07-06T16:04:59.954Z,56.12
2018-07-06T16:07:27.583Z,54.74
2018-07-06T16:09:55.289Z,55.67
2018-07-06T16:12:23.011Z,55.95
2018-07-06T16:14:50.657Z,54.86
2018-07-06T16:17:18.482Z,54.10
2018-07-06T16:19:46.209Z,53.99
2018-07-06T16:22:14.000Z,53.66
2018-07-06T16:24:41.675Z,53.92
2018-07-06T16:27:09.293Z,54.23
2018-07-06T16:29:36.939Z,53.94
2018-07-06T16:32:04.734Z,53.36
2018-07-06T16:34:32.377Z,53.89
2018-07-06T16:37:00.067Z,53.62
2018-07-06T16:39:27.712Z,54.73
2018-07-06T16:41:55.414Z,53.85
2018-07-06T16:44:23.029Z,54.50
2018-07-06T16:46:50.690Z,54.40
2018-07-06T16:49:18.350Z,53.95
2018-07-06T16:51:46.169Z,51.93
2018-07-06T16:54:14.042Z,54.10
2018-07-06T16:56:41.655Z,53.98
2018-07-06T16:59:09.302Z,54.16
2018-07-06T17:01:37.018Z,54.62
2018-07-06T17:04:04.667Z,54.42
2018-07-06T17:06:32.676Z,53.60
2018-07-06T17:09:00.679Z,53.71
2018-07-06T17:11:28.330Z,52.70
2018-07-06T17:13:56.152Z,51.98
2018-07-06T17:16:23.813Z,51.52
2018-07-06T17:18:51.468Z,51.63
2018-07-06T17:21:19.103Z,52.48
2018-07-06T17:23:46.794Z,51.88
2018-07-06T17:26:14.502Z,52.39
2018-07-06T17:28:42.122Z,51.83
2018-07-06T17:31:09.797Z,51.76
2018-07-06T17:33:37.465Z,53.16
2018-07-06T17:36:05.103Z,53.60
2018-07-06T17:38:32.764Z,53.46
2018-07-06T17:41:00.378Z,53.41
2018-07-06T17:43:27.993Z,54.83
2018-07-06T17:45:55.639Z,55.62
2018-07-06T17:48:23.310Z,55.56
2018-07-06T17:50:50.954Z,54.64
2018-07-06T17:53:18.601Z,52.76
2018-07-06T17:55:46.296Z,52.44
2018-07-06T17:58:13.954Z,54.61
2018-07-06T18:00:41.614Z,59.87
2018-07-06T18:03:09.246Z,58.31
2018-07-06T18:05:37.042Z,56.59
2018-07-06T18:08:04.818Z,58.42
2018-07-06T18:10:34.287Z,62.85
2018-07-06T18:13:02.080Z,59.96
2018-07-06T18:15:29.726Z,62.09
2018-07-06T18:17:57.377Z,63.14
2018-07-06T18:20:25.126Z,63.79
2018-07-06T18:22:53.049Z,63.55
2018-07-06T18:25:20.687Z,66.03
2018-07-06T18:27:55.135Z,66.03
2018-07-06T18:30:22.919Z,65.82
2018-07-06T18:32:50.535Z,66.78
2018-07-06T18:35:18.182Z,67.25
2018-07-06T18:37:45.856Z,66.95
2018-07-06T18:40:13.568Z,66.18
2018-07-06T18:42:41.213Z,66.27
2018-07-06T18:45:09.448Z,65.70
2018-07-06T18:47:37.199Z,66.48
2018-07-06T18:50:04.782Z,67.00
2018-07-06T18:52:32.490Z,66.68
2018-07-06T18:55:00.141Z,66.96
2018-07-06T18:57:27.821Z,67.27
2018-07-06T18:59:55.466Z,66.99
2018-07-06T19:02:23.135Z,67.99
2018-07-06T19:04:51.776Z,66.77
2018-07-06T19:07:19.406Z,67.23
2018-07-06T19:09:47.111Z,66.22
2018-07-06T19:12:14.953Z,67.01
2018-07-06T19:14:42.605Z,66.87
2018-07-06T19:17:10.394Z,66.70
2018-07-06T19:19:38.046Z,67.45
2018-07-06T19:22:05.858Z,66.60
2018-07-06T19:24:33.558Z,65.84
2018-07-06T19:27:01.165Z,65.07
2018-07-06T19:29:28.922Z,66.92
2018-07-06T19:31:56.741Z,66.74
2018-07-06T19:34:24.394Z,65.89
2018-07-06T19:36:52.131Z,67.78
2018-07-06T19:39:19.797Z,66.77
2018-07-06T19:41:47.797Z,68.88
2018-07-06T19:44:15.486Z,68.40
2018-07-06T19:46:43.171Z,68.37
2018-07-06T19:49:11.070Z,68.31
2018-07-06T19:51:38.852Z,67.97
2018-07-06T19:54:06.623Z,68.46
2018-07-06T19:56:34.443Z,68.51
2018-07-06T19:59:02.270Z,68.57
2018-07-06T20:01:30.035Z,69.02
2018-07-06T20:03:57.710Z,69.20
2018-07-06T20:06:25.485Z,68.87
2018-07-06T20:08:53.279Z,68.88
2018-07-06T20:11:20.941Z,70.20
2018-07-06T20:13:49.182Z,69.58
2018-07-06T20:16:17.101Z,69.57
2018-07-06T20:18:44.795Z,69.57
2018-07-06T20:21:12.488Z,69.12
2018-07-06T20:23:40.258Z,70.29
2018-07-06T20:26:07.902Z,70.11
2018-07-06T20:28:35.685Z,69.72
2018-07-06T20:31:03.410Z,69.63
2018-07-06T20:33:31.259Z,70.65
2018-07-06T20:35:58.922Z,70.73
2018-07-06T20:38:26.570Z,71.54
2018-07-06T20:40:54.286Z,71.70
2018-07-06T20:43:22.428Z,71.33
2018-07-06T20:45:50.152Z,72.01
2018-07-06T20:48:18.554Z,71.89
2018-07-06T20:50:46.883Z,71.54
2018-07-06T20:53:14.611Z,72.16
2018-07-06T20:55:42.343Z,71.32
2018-07-06T20:58:10.070Z,70.51
2018-07-06T21:00:37.785Z,69.52
2018-07-06T21:03:05.435Z,69.60
2018-07-06T21:05:33.150Z,70.05
2018-07-06T21:08:00.783Z,70.53
2018-07-06T21:10:34.631Z,70.33
2018-07-06T21:13:02.246Z,70.19
2018-07-06T21:15:29.928Z,70.28
2018-07-06T21:17:57.790Z,71.07
2018-07-06T21:20:25.470Z,71.39
2018-07-06T21:22:53.094Z,70.96
2018-07-06T21:25:20.800Z,70.54
2018-07-06T21:27:48.935Z,70.92
2018-07-06T21:30:17.651Z,70.24
2018-07-06T21:32:45.326Z,70.74
2018-07-06T21:35:12.995Z,70.46
2018-07-06T21:37:41.059Z,70.77
2018-07-06T21:40:08.982Z,71.98
2018-07-06T21:42:36.652Z,72.20
2018-07-06T21:45:05.016Z,72.76
2018-07-06T21:47:32.717Z,72.09
2018-07-06T21:50:00.379Z,72.71
2018-07-06T21:52:28.115Z,72.10
2018-07-06T21:54:55.886Z,71.33
2018-07-06T21:57:23.600Z,72.78
2018-07-06T21:59:51.262Z,71.83
2018-07-06T22:02:19.022Z,71.59
2018-07-06T22:04:46.909Z,72.12
2018-07-06T22:07:15.549Z,71.18
2018-07-06T22:09:43.664Z,70.59
2018-07-06T22:12:11.896Z,70.83
2018-07-06T22:14:39.896Z,70.52
2018-07-06T22:17:07.703Z,70.56
2018-07-06T22:19:35.363Z,70.02
2018-07-06T22:22:03.250Z,71.09
2018-07-06T22:24:30.969Z,71.01
2018-07-06T22:26:58.695Z,70.61
2018-07-06T22:29:26.378Z,70.93
2018-07-06T22:31:54.233Z,71.22
2018-07-06T22:34:21.878Z,71.33
2018-07-06T22:36:49.609Z,71.33
2018-07-06T22:39:17.273Z,71.14
2018-07-06T22:41:45.216Z,71.41
2018-07-06T22:44:12.995Z,71.02
2018-07-06T22:46:40.667Z,71.25
2018-07-06T22:49:08.423Z,71.62
2018-07-06T22:51:36.043Z,71.24
2018-07-06T22:54:03.758Z,71.50
2018-07-06T22:56:31.434Z,71.21
2018-07-06T22:58:59.074Z,71.46
2018-07-06T23:01:26.732Z,71.16
2018-07-06T23:03:54.446Z,72.71
2018-07-06T23:06:22.523Z,73.11
2018-07-06T23:08:50.190Z,72.82
2018-07-06T23:11:17.823Z,72.60
2018-07-06T23:13:45.523Z,73.20
2018-07-06T23:16:13.178Z,73.25
2018-07-06T23:18:40.798Z,74.35
2018-07-06T23:21:08.719Z,74.76
2018-07-06T23:23:36.354Z,74.88
2018-07-06T23:26:04.225Z,75.81
2018-07-06T23:28:32.031Z,76.33
2018-07-06T23:30:59.889Z,75.40
2018-07-06T23:33:27.645Z,76.05
2018-07-06T23:35:55.318Z,76.61
2018-07-06T23:38:23.187Z,75.96
2018-07-06T23:40:50.913Z,75.14
2018-07-06T23:43:18.702Z,75.98
2018-07-06T23:45:46.360Z,75.62
2018-07-06T23:48:14.031Z,74.89
2018-07-06T23:50:41.671Z,75.40
2018-07-06T23:53:09.325Z,75.64
2018-07-06T23:55:36.969Z,75.16
2018-07-06T23:58:04.909Z,75.47
